createdAt,value
2022-09-18T00:01:10.789Z,95069.06
2022-09-18T00:03:39.151Z,95076.09
2022-09-18T00:06:09.245Z,95080.63
2022-09-18T00:08:38.459Z,95073.94
2022-09-18T00:11:09.753Z,95086.69
2022-09-18T00:13:39.068Z,95078.50
2022-09-18T00:16:08.249Z,95078.31
2022-09-18T00:18:36.155Z,95083.25
2022-09-18T00:21:05.806Z,95080.34
2022-09-18T00:23:33.795Z,95074.91
2022-09-18T00:26:01.554Z,95083.06
2022-09-18T00:28:30.733Z,95079.09
2022-09-18T00:31:05.533Z,95086.13
2022-09-18T00:33:33.675Z,95087.72
2022-09-18T00:36:03.282Z,95093.63
2022-09-18T00:38:32.714Z,95095.53
2022-09-18T00:41:02.041Z,95086.41
2022-09-18T00:43:34.488Z,95090.72
2022-09-18T00:46:25.517Z,95090.88
2022-09-18T00:49:03.084Z,95085.00
2022-09-18T00:51:34.370Z,95087.47
2022-09-18T00:54:08.031Z,95077.69
2022-09-18T00:56:36.165Z,95092.81
2022-09-18T00:59:05.626Z,95090.16
2022-09-18T01:01:33.410Z,95095.09
2022-09-18T01:04:01.203Z,95097.34
2022-09-18T01:06:37.665Z,95095.75
2022-09-18T01:09:27.755Z,95106.22
2022-09-18T01:12:03.162Z,95099.81
2022-09-18T01:14:42.164Z,95100.69
2022-09-18T01:17:18.667Z,95099.56
2022-09-18T01:20:26.380Z,95117.06
2022-09-18T01:23:14.282Z,95116.56
2022-09-18T01:25:57.098Z,95118.13
2022-09-18T01:28:34.032Z,95099.84
2022-09-18T01:31:09.277Z,95105.03
2022-09-18T01:33:41.114Z,95114.63
2022-09-18T01:36:11.970Z,95109.47
2022-09-18T01:38:43.726Z,95108.28
2022-09-18T01:41:15.555Z,95106.53
2022-09-18T01:43:49.517Z,95110.66
2022-09-18T01:46:20.862Z,95099.94
2022-09-18T01:48:54.442Z,95101.59
2022-09-18T01:51:25.169Z,95084.13
2022-09-18T01:53:58.651Z,95094.75
2022-09-18T01:56:29.400Z,95089.06
2022-09-18T01:59:03.707Z,95085.44
2022-09-18T02:01:44.046Z,95089.13
2022-09-18T02:04:17.363Z,95098.34
2022-09-18T02:06:52.681Z,95098.34
2022-09-18T02:09:20.570Z,95105.84
2022-09-18T02:11:51.825Z,95099.44
2022-09-18T02:14:26.827Z,95091.41
2022-09-18T02:17:08.368Z,95095.38
2022-09-18T02:19:42.396Z,95085.16
2022-09-18T02:22:13.529Z,95086.13
2022-09-18T02:24:43.526Z,95074.63
2022-09-18T02:27:14.716Z,95073.50
2022-09-18T02:29:46.253Z,95077.09
2022-09-18T02:32:15.208Z,95068.03
2022-09-18T02:34:43.260Z,95068.59
2022-09-18T02:37:28.391Z,95081.13
2022-09-18T02:40:11.070Z,95080.69
2022-09-18T02:42:48.684Z,95083.25
2022-09-18T02:45:26.332Z,95085.28
2022-09-18T02:48:18.303Z,95078.41
2022-09-18T02:50:56.118Z,95078.88
2022-09-18T02:53:30.705Z,95069.97
2022-09-18T02:56:04.306Z,95075.06
2022-09-18T02:58:40.580Z,95074.91
2022-09-18T03:01:13.868Z,95066.34
2022-09-18T03:03:42.712Z,95073.19
2022-09-18T03:06:12.193Z,95075.41
2022-09-18T03:08:40.331Z,95072.16
2022-09-18T03:11:09.180Z,95062.72
2022-09-18T03:13:37.203Z,95072.75
2022-09-18T03:16:04.992Z,95076.47
2022-09-18T03:18:34.113Z,95076.72
2022-09-18T03:21:01.845Z,95084.03
2022-09-18T03:23:29.636Z,95073.81
2022-09-18T03:26:08.787Z,95090.28
2022-09-18T03:28:36.579Z,95076.41
2022-09-18T03:31:04.583Z,95082.53
2022-09-18T03:33:35.137Z,95069.94
2022-09-18T03:36:03.383Z,95086.06
2022-09-18T03:38:31.618Z,95085.59
2022-09-18T03:40:59.693Z,95084.69
2022-09-18T03:43:27.702Z,95080.56
2022-09-18T03:45:55.419Z,95089.19
2022-09-18T03:48:23.248Z,95086.84
2022-09-18T03:50:53.349Z,95088.78
2022-09-18T03:53:22.378Z,95086.06
2022-09-18T03:56:07.981Z,95085.84
2022-09-18T03:58:35.710Z,95091.34
2022-09-18T04:01:21.418Z,95084.19
2022-09-18T04:04:24.251Z,95082.44
2022-09-18T04:07:11.852Z,95087.97
2022-09-18T04:10:09.336Z,95085.31
2022-09-18T04:12:39.673Z,95062.03
2022-09-18T04:15:16.475Z,95087.69
2022-09-18T04:17:44.838Z,95084.34
2022-09-18T04:20:13.053Z,95094.72
2022-09-18T04:22:45.274Z,95085.94
2022-09-18T04:25:13.055Z,95090.84
2022-09-18T04:27:41.508Z,95087.78
2022-09-18T04:30:10.636Z,95093.84
2022-09-18T04:32:43.090Z,95092.16
2022-09-18T04:35:11.212Z,95082.31
2022-09-18T04:37:39.478Z,95089.34
2022-09-18T04:40:09.580Z,95096.84
2022-09-18T04:42:38.098Z,95096.31
2022-09-18T04:45:08.595Z,95094.09
2022-09-18T04:47:36.359Z,95098.41
2022-09-18T04:50:08.708Z,95109.44
2022-09-18T04:52:36.709Z,95099.22
2022-09-18T04:55:05.685Z,95097.44
2022-09-18T04:57:34.915Z,95095.50
2022-09-18T05:00:04.501Z,95096.47
2022-09-18T05:02:32.994Z,95088.75
2022-09-18T05:05:00.732Z,95098.59
2022-09-18T05:07:33.980Z,95112.94
2022-09-18T05:10:02.083Z,95110.47
2022-09-18T05:12:32.137Z,95117.34
2022-09-18T05:15:01.360Z,95113.38
2022-09-18T05:17:29.306Z,95120.06
2022-09-18T05:20:02.513Z,95120.25
2022-09-18T05:22:37.805Z,95120.59
2022-09-18T05:25:10.568Z,95124.22
2022-09-18T05:27:38.912Z,95122.94
2022-09-18T05:30:10.999Z,95132.00
2022-09-18T05:33:01.490Z,95124.97
2022-09-18T05:35:32.878Z,95105.38
2022-09-18T05:38:01.373Z,95128.50
2022-09-18T05:40:33.641Z,95132.81
2022-09-18T05:43:02.954Z,95131.03
2022-09-18T05:45:34.680Z,95119.31
2022-09-18T05:48:07.995Z,95126.19
2022-09-18T05:50:37.343Z,95135.97
2022-09-18T05:53:07.998Z,95133.84
2022-09-18T05:55:44.808Z,95128.50
2022-09-18T05:58:14.297Z,95129.34
2022-09-18T06:00:45.604Z,95130.25
2022-09-18T06:03:20.323Z,95132.44
2022-09-18T06:06:00.345Z,95132.34
2022-09-18T06:08:28.134Z,95135.47
2022-09-18T06:10:56.006Z,95136.72
2022-09-18T06:13:23.791Z,95139.63
2022-09-18T06:15:56.075Z,95143.84
2022-09-18T06:18:51.107Z,95151.94
2022-09-18T06:21:19.973Z,95143.75
2022-09-18T06:23:47.949Z,95150.63
2022-09-18T06:26:25.086Z,95147.88
2022-09-18T06:28:52.829Z,95147.69
2022-09-18T06:31:22.207Z,95148.72
2022-09-18T06:33:57.389Z,95149.91
2022-09-18T06:36:25.236Z,95158.72
2022-09-18T06:39:22.077Z,95148.06
2022-09-18T06:41:52.870Z,95149.63
2022-09-18T06:44:27.289Z,95156.63
2022-09-18T06:47:04.832Z,95150.81
2022-09-18T06:49:40.651Z,95150.63
2022-09-18T06:52:08.403Z,95150.63
2022-09-18T06:54:38.085Z,95147.47
2022-09-18T06:57:07.865Z,95145.13
2022-09-18T06:59:37.748Z,95138.78
2022-09-18T07:02:18.717Z,95152.00
2022-09-18T07:05:00.932Z,95161.59
2022-09-18T07:07:28.836Z,95155.06
2022-09-18T07:09:58.291Z,95139.22
2022-09-18T07:12:36.945Z,95137.38
2022-09-18T07:15:07.416Z,95145.34
2022-09-18T07:17:37.279Z,95139.22
2022-09-18T07:20:06.535Z,95142.63
2022-09-18T07:22:44.941Z,95152.31
2022-09-18T07:25:15.127Z,95155.47
2022-09-18T07:27:44.712Z,95151.41
2022-09-18T07:30:14.689Z,95168.19
2022-09-18T07:32:45.708Z,95163.06
2022-09-18T07:35:17.362Z,95165.31
2022-09-18T07:37:45.228Z,95166.78
2022-09-18T07:40:20.459Z,95169.44
2022-09-18T07:43:10.838Z,95172.44
2022-09-18T07:45:45.451Z,95169.88
2022-09-18T07:48:14.856Z,95184.78
2022-09-18T07:50:47.499Z,95167.69
2022-09-18T07:53:17.590Z,95167.13
2022-09-18T07:55:48.277Z,95148.72
2022-09-18T07:58:16.072Z,95172.44
2022-09-18T08:00:56.999Z,95175.50
2022-09-18T08:03:27.350Z,95178.22
2022-09-18T08:06:08.666Z,95178.22
2022-09-18T08:08:37.132Z,95171.91
2022-09-18T08:11:16.067Z,95165.19
2022-09-18T08:13:55.547Z,95165.75
2022-09-18T08:16:46.498Z,95156.63
2022-09-18T08:19:47.920Z,95163.06
2022-09-18T08:22:27.317Z,95167.44
2022-09-18T08:24:57.387Z,95175.06
2022-09-18T08:27:25.144Z,95181.75
2022-09-18T08:29:53.958Z,95174.28
2022-09-18T08:32:24.040Z,95174.31
2022-09-18T08:34:54.563Z,95176.69
2022-09-18T08:37:22.572Z,95180.06
2022-09-18T08:40:31.787Z,95173.22
2022-09-18T08:43:14.994Z,95175.97
2022-09-18T08:45:56.016Z,95171.56
2022-09-18T08:48:29.005Z,95180.88
2022-09-18T08:51:04.746Z,95177.63
2022-09-18T08:53:40.026Z,95184.75
2022-09-18T08:56:40.798Z,95192.91
2022-09-18T08:59:30.431Z,95176.28
2022-09-18T09:02:14.473Z,95179.81
2022-09-18T09:04:43.224Z,95190.84
2022-09-18T09:07:26.040Z,95190.91
2022-09-18T09:10:04.419Z,95189.22
2022-09-18T09:12:44.297Z,95197.13
2022-09-18T09:15:25.547Z,95194.75
2022-09-18T09:18:13.921Z,95195.97
2022-09-18T09:20:50.507Z,95182.34
2022-09-18T09:23:30.012Z,95208.47
2022-09-18T09:26:06.544Z,95195.91
2022-09-18T09:29:01.333Z,95190.41
2022-09-18T09:31:56.814Z,95191.56
2022-09-18T09:34:44.447Z,95194.81
2022-09-18T09:37:40.394Z,95196.53
2022-09-18T09:40:19.120Z,95199.19
2022-09-18T09:42:54.265Z,95194.25
2022-09-18T09:45:29.512Z,95202.19
2022-09-18T09:48:07.715Z,95197.78
2022-09-18T09:50:46.080Z,95203.75
2022-09-18T09:53:14.595Z,95204.19
2022-09-18T09:55:53.234Z,95179.97
2022-09-18T09:58:36.080Z,95186.81
2022-09-18T10:01:12.661Z,95201.28
2022-09-18T10:03:48.853Z,95197.19
2022-09-18T10:06:40.121Z,95202.09
2022-09-18T10:09:17.855Z,95192.53
2022-09-18T10:11:57.435Z,95194.69
2022-09-18T10:14:29.220Z,95196.91
2022-09-18T10:16:59.055Z,95193.59
2022-09-18T10:19:35.599Z,95202.72
2022-09-18T10:22:07.433Z,95197.44
2022-09-18T10:24:46.963Z,95199.47
2022-09-18T10:27:19.005Z,95205.59
2022-09-18T10:29:47.208Z,95205.22
2022-09-18T10:32:36.719Z,95200.72
2022-09-18T10:35:45.400Z,95209.38
2022-09-18T10:38:29.527Z,95221.56
2022-09-18T10:41:20.093Z,95210.34
2022-09-18T10:43:57.181Z,95213.34
2022-09-18T10:46:30.252Z,95213.63
2022-09-18T10:49:00.349Z,95210.28
2022-09-18T10:51:29.264Z,95208.97
2022-09-18T10:54:04.580Z,95206.41
2022-09-18T10:56:49.935Z,95205.84
2022-09-18T10:59:35.895Z,95199.78
2022-09-18T11:02:07.425Z,95192.88
2022-09-18T11:04:36.949Z,95192.69
2022-09-18T11:07:07.643Z,95200.19
2022-09-18T11:09:40.059Z,95196.41
2022-09-18T11:12:21.949Z,95198.16
2022-09-18T11:14:57.005Z,95183.16
2022-09-18T11:17:28.257Z,95194.56
2022-09-18T11:19:58.388Z,95194.69
2022-09-18T11:22:42.653Z,95181.69
2022-09-18T11:25:21.459Z,95176.91
2022-09-18T11:27:54.017Z,95189.25
2022-09-18T11:30:27.606Z,95188.53
2022-09-18T11:33:00.379Z,95184.41
2022-09-18T11:35:33.708Z,95183.81
2022-09-18T11:38:08.173Z,95171.56
2022-09-18T11:40:45.048Z,95170.75
2022-09-18T11:43:23.413Z,95178.31
2022-09-18T11:46:02.068Z,95175.13
2022-09-18T11:48:35.570Z,95179.06
2022-09-18T11:51:06.473Z,95169.03
2022-09-18T11:53:40.707Z,95167.44
2022-09-18T11:56:15.282Z,95171.91
2022-09-18T11:58:47.969Z,95167.38
2022-09-18T12:01:26.947Z,95167.56
2022-09-18T12:04:01.868Z,95159.59
2022-09-18T12:06:37.303Z,95159.72
2022-09-18T12:09:10.743Z,95163.38
2022-09-18T12:11:49.817Z,95159.09
2022-09-18T12:14:23.689Z,95149.00
2022-09-18T12:17:19.039Z,95144.09
2022-09-18T12:19:51.191Z,95148.03
2022-09-18T12:22:27.478Z,95150.94
2022-09-18T12:24:55.770Z,95137.53
2022-09-18T12:27:50.332Z,95127.06
2022-09-18T12:30:20.267Z,95120.69
2022-09-18T12:33:13.548Z,95130.22
2022-09-18T12:36:07.433Z,95118.88
2022-09-18T12:38:51.086Z,95134.88
2022-09-18T12:41:31.570Z,95128.88
2022-09-18T12:44:13.325Z,95132.94
2022-09-18T12:47:00.715Z,95137.69
2022-09-18T12:49:46.847Z,95130.78
2022-09-18T12:52:30.324Z,95137.81
2022-09-18T12:55:16.104Z,95145.50
2022-09-18T12:57:57.073Z,95138.50
2022-09-18T13:00:25.521Z,95145.16
2022-09-18T13:02:56.041Z,95137.16
2022-09-18T13:05:30.869Z,95112.69
2022-09-18T13:08:06.326Z,95105.97
2022-09-18T13:10:39.137Z,95106.31
2022-09-18T13:13:14.905Z,95103.78
2022-09-18T13:15:47.086Z,95103.09
2022-09-18T13:18:33.431Z,95108.22
2022-09-18T13:21:06.526Z,95110.72
2022-09-18T13:23:38.881Z,95119.81
2022-09-18T13:26:09.288Z,95117.88
2022-09-18T13:28:37.691Z,95117.09
2022-09-18T13:31:26.297Z,95115.53
2022-09-18T13:33:57.959Z,95120.25
2022-09-18T13:36:29.863Z,95112.75
2022-09-18T13:39:01.555Z,95102.28
2022-09-18T13:41:30.297Z,95109.94
2022-09-18T13:44:00.688Z,95105.00
2022-09-18T13:46:39.621Z,95111.09
2022-09-18T13:49:20.408Z,95103.28
2022-09-18T13:51:49.741Z,95095.19
2022-09-18T13:54:29.635Z,95104.63
2022-09-18T13:57:31.537Z,95106.50
2022-09-18T14:00:06.765Z,95111.91
2022-09-18T14:02:40.973Z,95103.78
2022-09-18T14:05:33.626Z,95106.19
2022-09-18T14:08:38.982Z,95104.28
2022-09-18T14:11:17.581Z,95105.63
2022-09-18T14:13:53.992Z,95101.50
2022-09-18T14:16:29.205Z,95098.44
2022-09-18T14:19:01.990Z,95098.84
2022-09-18T14:21:32.834Z,95102.59
2022-09-18T14:24:19.160Z,95099.44
2022-09-18T14:26:59.672Z,95107.19
2022-09-18T14:29:30.693Z,95097.25
2022-09-18T14:31:59.866Z,95090.53
2022-09-18T14:34:33.713Z,95095.31
2022-09-18T14:37:03.614Z,95087.63
2022-09-18T14:39:36.145Z,95078.91
2022-09-18T14:42:06.159Z,95085.84
2022-09-18T14:44:35.327Z,95074.00
2022-09-18T14:47:06.279Z,95073.22
2022-09-18T14:49:35.858Z,95070.00
2022-09-18T14:52:05.040Z,95075.78
2022-09-18T14:54:40.869Z,95067.84
2022-09-18T14:57:15.609Z,95084.78
2022-09-18T14:59:43.843Z,95083.44
2022-09-18T15:02:18.935Z,95084.41
2022-09-18T15:04:47.174Z,95070.56
2022-09-18T15:07:18.642Z,95076.75
2022-09-18T15:09:49.925Z,95069.13
2022-09-18T15:12:20.432Z,95068.72
2022-09-18T15:14:48.302Z,95067.94
2022-09-18T15:17:20.167Z,95063.97
2022-09-18T15:19:59.492Z,95069.91
2022-09-18T15:22:28.404Z,95066.53
2022-09-18T15:25:00.783Z,95067.53
2022-09-18T15:27:30.019Z,95052.91
2022-09-18T15:30:01.329Z,95059.81
2022-09-18T15:32:37.668Z,95051.94
2022-09-18T15:35:08.703Z,95063.56
2022-09-18T15:37:38.319Z,95059.44
2022-09-18T15:40:10.447Z,95054.69
2022-09-18T15:42:41.410Z,95046.41
2022-09-18T15:45:23.422Z,95053.50
2022-09-18T15:47:51.396Z,95056.69
2022-09-18T15:50:37.994Z,95057.84
2022-09-18T15:53:19.281Z,95041.31
2022-09-18T15:55:55.995Z,95046.81
2022-09-18T15:58:33.540Z,95030.56
2022-09-18T16:01:04.311Z,95051.03
2022-09-18T16:03:33.203Z,95050.22
2022-09-18T16:06:05.016Z,95042.59
2022-09-18T16:08:34.992Z,95050.56
2022-09-18T16:11:06.397Z,95037.97
2022-09-18T16:13:37.715Z,95032.44
2022-09-18T16:16:25.317Z,95035.59
2022-09-18T16:18:56.672Z,95027.72
2022-09-18T16:21:28.085Z,95032.66
2022-09-18T16:23:59.162Z,95010.34
2022-09-18T16:26:31.722Z,95027.13
2022-09-18T16:29:02.297Z,95024.56
2022-09-18T16:31:32.206Z,95008.19
2022-09-18T16:34:02.206Z,95018.44
2022-09-18T16:36:34.252Z,95018.06
2022-09-18T16:39:05.158Z,95002.66
2022-09-18T16:41:35.105Z,95009.97
2022-09-18T16:44:05.181Z,95008.78
2022-09-18T16:46:38.707Z,95001.47
2022-09-18T16:49:06.568Z,95006.41
2022-09-18T16:51:34.431Z,95002.28
2022-09-18T16:54:02.567Z,94996.34
2022-09-18T16:56:34.762Z,94985.31
2022-09-18T16:59:06.031Z,94997.72
2022-09-18T17:01:54.190Z,94999.69
2022-09-18T17:04:24.292Z,95000.88
2022-09-18T17:06:52.126Z,94997.13
2022-09-18T17:09:21.295Z,95002.25
2022-09-18T17:11:49.077Z,94999.50
2022-09-18T17:14:18.625Z,94994.56
2022-09-18T17:16:46.585Z,95002.84
2022-09-18T17:19:14.369Z,94995.94
2022-09-18T17:21:42.521Z,94992.59
2022-09-18T17:24:11.213Z,94990.44
2022-09-18T17:26:40.587Z,94988.25
2022-09-18T17:29:10.384Z,94994.19
2022-09-18T17:31:39.937Z,94973.50
2022-09-18T17:34:08.356Z,94997.94
2022-09-18T17:36:36.850Z,94990.44
2022-09-18T17:39:05.504Z,94991.63
2022-09-18T17:41:34.363Z,94988.47
2022-09-18T17:44:02.637Z,94986.88
2022-09-18T17:46:30.559Z,94988.84
2022-09-18T17:49:00.586Z,94994.19
2022-09-18T17:51:29.435Z,94991.63
2022-09-18T17:53:59.986Z,94996.75
2022-09-18T17:56:29.963Z,95002.50
2022-09-18T17:58:59.819Z,94997.75
2022-09-18T18:01:29.540Z,94983.94
2022-09-18T18:03:57.422Z,94984.72
2022-09-18T18:06:26.949Z,94996.16
2022-09-18T18:08:56.070Z,95005.81
2022-09-18T18:11:25.180Z,94987.47
2022-09-18T18:13:54.893Z,95009.97
2022-09-18T18:16:25.157Z,95001.09
2022-09-18T18:18:56.808Z,95011.34
2022-09-18T18:21:27.291Z,95007.78
2022-09-18T18:23:59.420Z,95015.28
2022-09-18T18:26:28.971Z,95009.56
2022-09-18T18:28:57.206Z,95022.97
2022-09-18T18:31:26.059Z,95015.69
2022-09-18T18:33:55.447Z,95022.38
2022-09-18T18:36:27.067Z,95019.81
2022-09-18T18:38:56.607Z,95018.78
2022-09-18T18:41:26.655Z,95018.78
2022-09-18T18:43:56.770Z,95019.59
2022-09-18T18:46:26.398Z,95011.31
2022-09-18T18:49:02.790Z,95023.75
2022-09-18T18:51:34.590Z,95025.94
2022-09-18T18:54:03.595Z,95033.38
2022-09-18T18:56:33.507Z,95030.81
2022-09-18T18:59:02.928Z,95034.97
2022-09-18T19:01:31.962Z,95032.41
2022-09-18T19:04:01.790Z,95033.97
2022-09-18T19:06:30.086Z,95034.97
2022-09-18T19:09:01.064Z,95029.25
2022-09-18T19:11:30.019Z,95028.06
2022-09-18T19:13:59.829Z,95038.09
2022-09-18T19:16:29.300Z,95029.22
2022-09-18T19:19:00.220Z,95034.75
2022-09-18T19:21:29.265Z,95021.94
2022-09-18T19:23:59.867Z,95033.19
2022-09-18T19:26:29.511Z,95034.56
2022-09-18T19:28:59.105Z,95031.22
2022-09-18T19:31:27.868Z,95050.72
2022-09-18T19:33:56.124Z,95043.63
2022-09-18T19:36:27.404Z,95042.66
2022-09-18T19:38:56.986Z,95030.66
2022-09-18T19:41:33.449Z,95029.47
2022-09-18T19:44:03.061Z,95041.50
2022-09-18T19:46:33.175Z,95022.94
2022-09-18T19:49:01.160Z,95019.41
2022-09-18T19:51:30.084Z,95020.19
2022-09-18T19:53:57.942Z,95016.66
2022-09-18T19:56:42.257Z,95020.22
2022-09-18T19:59:11.017Z,95009.97
2022-09-18T20:01:38.781Z,95017.28
2022-09-18T20:04:06.716Z,95023.00
2022-09-18T20:06:35.092Z,95012.75
2022-09-18T20:09:02.821Z,95007.03
2022-09-18T20:11:32.007Z,95014.53
2022-09-18T20:13:59.754Z,95001.50
2022-09-18T20:16:27.931Z,94998.13
2022-09-18T20:18:55.777Z,94996.34
2022-09-18T20:21:24.065Z,94986.50
2022-09-18T20:23:57.664Z,94991.81
2022-09-18T20:26:26.023Z,94994.97
2022-09-18T20:28:55.370Z,94996.53
2022-09-18T20:31:24.572Z,95004.25
2022-09-18T20:33:55.575Z,95002.47
2022-09-18T20:36:25.627Z,94992.22
2022-09-18T20:38:57.798Z,95002.47
2022-09-18T20:41:28.087Z,94993.41
2022-09-18T20:43:59.245Z,94990.66
2022-09-18T20:46:27.511Z,94976.66
2022-09-18T20:48:55.961Z,94968.94
2022-09-18T20:51:27.678Z,94973.09
2022-09-18T20:53:57.264Z,94986.72
2022-09-18T20:56:26.895Z,94982.34
2022-09-18T20:58:54.836Z,94972.69
2022-09-18T21:01:26.704Z,94983.72
2022-09-18T21:03:57.057Z,94981.34
2022-09-18T21:06:26.069Z,94971.28
2022-09-18T21:08:55.507Z,94987.28
2022-09-18T21:11:24.883Z,94988.06
2022-09-18T21:13:55.756Z,94972.47
2022-09-18T21:16:26.618Z,94973.66
2022-09-18T21:18:57.643Z,94963.00
2022-09-18T21:21:27.419Z,94949.97
2022-09-18T21:23:58.461Z,94958.88
2022-09-18T21:26:28.593Z,94964.97
2022-09-18T21:28:58.204Z,94971.09
2022-09-18T21:31:27.757Z,94951.97
2022-09-18T21:33:55.827Z,94963.59
2022-09-18T21:36:27.470Z,94960.25
2022-09-18T21:38:56.195Z,94950.59
2022-09-18T21:41:25.561Z,94963.22
2022-09-18T21:43:54.076Z,94947.44
2022-09-18T21:46:23.920Z,94953.72
2022-09-18T21:48:56.316Z,94967.75
2022-09-18T21:51:24.098Z,94964.59
2022-09-18T21:53:51.822Z,94953.53
2022-09-18T21:56:21.585Z,94967.34
2022-09-18T21:58:50.230Z,94967.13
2022-09-18T22:01:22.892Z,94960.03
2022-09-18T22:03:55.487Z,94976.19
2022-09-18T22:06:25.965Z,94965.69
2022-09-18T22:08:56.324Z,94977.44
2022-09-18T22:11:26.856Z,94969.69
2022-09-18T22:13:55.659Z,94961.00
2022-09-18T22:16:25.988Z,94958.13
2022-09-18T22:18:55.139Z,94944.53
2022-09-18T22:21:26.627Z,94962.53
2022-09-18T22:23:55.983Z,94942.09
2022-09-18T22:26:26.265Z,94952.69
2022-09-18T22:28:56.447Z,94942.88
2022-09-18T22:31:25.608Z,94931.44
2022-09-18T22:33:57.650Z,94921.16
2022-09-18T22:36:26.665Z,94934.91
2022-09-18T22:38:54.756Z,94919.56
2022-09-18T22:41:22.793Z,94919.69
2022-09-18T22:43:54.449Z,94928.91
2022-09-18T22:46:23.791Z,94919.66
2022-09-18T22:48:51.832Z,94912.19
2022-09-18T22:51:22.480Z,94919.28
2022-09-18T22:53:54.172Z,94924.69
2022-09-18T22:56:22.950Z,94906.53
2022-09-18T22:58:52.280Z,94913.25
2022-09-18T23:01:23.595Z,94914.78
2022-09-18T23:03:53.692Z,94891.00
2022-09-18T23:06:25.582Z,94909.44
2022-09-18T23:08:53.873Z,94892.53
2022-09-18T23:11:24.540Z,94901.19
2022-09-18T23:13:54.123Z,94885.06
2022-09-18T23:16:22.956Z,94892.94
2022-09-18T23:18:53.151Z,94894.72
2022-09-18T23:21:23.784Z,94900.81
2022-09-18T23:23:51.523Z,94907.25
2022-09-18T23:26:23.242Z,94903.19
2022-09-18T23:28:52.634Z,94909.63
2022-09-18T23:31:22.453Z,94908.47
2022-09-18T23:33:52.704Z,94909.25
2022-09-18T23:36:23.717Z,94924.22
2022-09-18T23:38:55.516Z,94911.31
2022-09-18T23:41:24.026Z,94908.16
2022-09-18T23:43:53.700Z,94926.88
2022-09-18T23:46:22.193Z,94928.41
2022-09-18T23:48:54.938Z,94926.03
2022-09-18T23:51:25.411Z,94924.22
2022-09-18T23:53:53.802Z,94933.22
2022-09-18T23:56:23.418Z,94941.88
2022-09-18T23:58:55.296Z,94927.88
